Ship Status Report: callsign BAREU51

sailwx.info

Track history (hours):
 
Tides and Currents Weather Stations Pressure Air Temp Water Temp Dewpoint Dewpoint Depression Visibility Wind Speed Wind Dir Waves Ship Positions

Callsign BAREU51 (name unknown)

Last reported at 2016-Sep-27 08:00 UTC. Time now 2016-Sep-27 08:47 UTC.
Position N 41°24' E 011°12'.

Barometer 1020.9 mb
Air temperature 22.9 ° C

Date/timePositionNaut miles runAvg speedWind from/ knotsBaromVisibWave heightAir tempDewpointWater temp
2016-Sep-27 08:00N 41°24' E 011°12'2020.1 1020.9 22.9
2016-Sep-27 07:00N 41°06' E 011°24'2020.2 1020.6 22.1
2016-Sep-27 06:00N 40°48' E 011°36'2322.6 1020.1 21.8
2016-Sep-27 05:00N 40°30' E 011°54'2625.7 1019.5 21.7
2016-Sep-27 04:00N 40°06' E 012°06'2020.2 1019.2 22.0
2016-Sep-27 03:00N 39°48' E 012°18'2020.2 1018.9 21.8
2016-Sep-27 02:00N 39°30' E 012°30'2827.7 1018.5 22.0
2016-Sep-27 01:00N 39°06' E 012°48'2020.3 1018.9 22.0
2016-Sep-27 00:00N 38°48' E 013°00'2020.3 1019.0 22.1
2016-Sep-26 23:00N 38°30' E 013°12'2625.8 1019.2 22.3
2016-Sep-26 22:00N 38°06' E 013°24'0 0.0 1019.8 20.8
2016-Sep-26 08:00N 38°06' E 013°24'0 0.0 1018.4 25.2
2016-Sep-26 04:00N 38°06' E 013°24'0 0.0 1016.8 21.7
2016-Sep-25 19:00N 38°06' E 013°24'0 0.0 1017.0 21.3
2016-Sep-25 18:00N 38°06' E 013°24'0 0.0 1016.8 21.5
2016-Sep-25 16:00N 38°06' E 013°24'6 6.0 1016.1 21.6
2016-Sep-25 15:00N 38°12' E 013°24'2827.8 1014.8 21.3
2016-Sep-25 14:00N 38°36' E 013°06'2020.3 1015.4 22.9
2016-Sep-25 13:00N 38°54' E 012°54'2322.8 1015.8 23.9
2016-Sep-25 12:00N 39°12' E 012°36'2322.8 1016.7 24.5
2016-Sep-25 11:00N 39°30' E 012°18'2020.2 1017.9 24.7
2016-Sep-25 10:00N 39°48' E 012°06'2322.7 1018.4 24.1
2016-Sep-25 09:00N 40°06' E 011°48'2020.2 1018.8 23.7
2016-Sep-25 08:00N 40°24' E 011°36'2827.6 1019.3 23.3
2016-Sep-25 07:00N 40°48' E 011°18'2322.6 1019.6 22.5
2016-Sep-25 06:00N 41°06' E 011°00'2020.1 1019.7 22.1
2016-Sep-25 05:00N 41°24' E 010°48'2222.5 1020.3 21.2
2016-Sep-25 04:00N 41°42' E 010°30'3029.9 1020.2 21.6
2016-Sep-25 03:00N 42°06' E 010°06'2625.6 1020.2 21.6
2016-Sep-25 02:00N 42°30' E 009°54'3030.3 1020.5 21.7
2016-Sep-25 01:00N 43°00' E 010°00'2625.5 1020.7 22.1
2016-Sep-25 00:00N 43°24' E 009°48'3029.6 1020.6 22.1
2016-Sep-24 23:00N 43°48' E 009°24'2727.3 1021.3 22.4
2016-Sep-24 22:00N 44°12' E 009°06'15 4.9 1022.1 22.5
2016-Sep-24 19:00N 44°24' E 008°54'0 0.0 1023.2 22.6
2016-Sep-24 17:00N 44°24' E 008°54'7 7.4 1023.0 23.3
2016-Sep-24 16:00N 44°18' E 009°00'2222.2 1022.3 23.3
2016-Sep-24 15:00N 44°00' E 009°18'2020.0 1022.8 22.6
2016-Sep-24 14:00N 43°42' E 009°30'2727.3 1023.0 22.1
2016-Sep-24 13:00N 43°18' E 009°48'2020.0 1023.2 22.9
2016-Sep-24 12:00N 43°00' E 010°00'1918.5 1023.8 23.0
2016-Sep-24 11:00N 42°42' E 010°06'2525.2 1024.2 22.5
2016-Sep-24 10:00N 42°24' E 010°30'2020.1 1023.8 21.8
2016-Sep-24 09:00N 42°06' E 010°42'2222.4 1024.0 22.0
2016-Sep-24 08:00N 41°48' E 011°00'2625.6 1023.9 22.8
2016-Sep-24 07:00N 41°24' E 011°12'2020.1 1023.6 22.3
2016-Sep-24 06:00N 41°06' E 011°24'2322.6 1023.3 22.2
2016-Sep-24 05:00N 40°48' E 011°42'2625.7 1022.3 21.9
2016-Sep-24 04:00N 40°24' E 011°54'2827.7 1022.1 22.0
2016-Sep-24 03:00N 40°00' E 012°12'2827.7 1021.9 22.1
2016-Sep-24 02:00N 39°36' E 012°30'2625.7 1021.8 22.3
2016-Sep-24 01:00N 39°12' E 012°42'2827.8 1022.3 22.5
2016-Sep-24 00:00N 38°48' E 013°00'2827.8 1022.2 22.4
2016-Sep-23 23:00N 38°24' E 013°18'13 1.8 1022.4 23.0
2016-Sep-23 16:00N 38°12' E 013°24'2827.8 1022.3 23.5
2016-Sep-23 15:00N 38°36' E 013°06'2827.8 1022.0 23.6
2016-Sep-23 14:00N 39°00' E 012°48'2322.8 1021.9 23.4
2016-Sep-23 13:00N 39°18' E 012°30'2827.7 1022.1 24.0
2016-Sep-23 12:00N 39°42' E 012°12'2322.7 1022.8 23.7
2016-Sep-23 11:00N 40°00' E 011°54'2020.2 1023.3 24.2
2016-Sep-23 10:00N 40°18' E 011°42'2322.6 1023.5 24.2
2016-Sep-23 09:00N 40°36' E 011°24'2322.6 1023.5 23.5
2016-Sep-23 08:00N 40°54' E 011°06'2625.6 1023.2 23.3
2016-Sep-23 07:00N 41°18' E 010°54'2222.5 1022.8 22.5
2016-Sep-23 06:00N 41°36' E 010°36'2222.5 1022.5 21.9
2016-Sep-23 05:00N 41°54' E 010°18'2222.4 1021.7 21.2
2016-Sep-23 04:00N 42°12' E 010°00'2424.4 1021.4 21.5
2016-Sep-23 03:00N 42°36' E 009°54'2424.4 1021.2 21.6
2016-Sep-23 02:00N 43°00' E 010°00'2020.0 1021.2 21.8
2016-Sep-23 01:00N 43°18' E 009°48'2727.3 1021.2 21.9
2016-Sep-23 00:00N 43°42' E 009°30'2020.0 1022.0 21.8
2016-Sep-22 23:00N 44°00' E 009°18'2222.2 1022.3 21.4
2016-Sep-22 22:00N 44°18' E 009°00'7 1.5 1022.3 20.7
2016-Sep-22 17:00N 44°24' E 008°54'1514.8 1020.7 22.8
2016-Sep-22 16:00N 44°12' E 009°06'2222.2 1020.0 22.7
2016-Sep-22 15:00N 43°54' E 009°24'2020.0 1020.1 22.8
2016-Sep-22 14:00N 43°36' E 009°36'4522.7 1020.0 22.5
2016-Sep-22 12:00N 42°54' E 010°00'2020.0 1019.5 22.2
2016-Sep-22 11:00N 42°36' E 010°12'2121.4 1019.6 22.5
2016-Sep-22 10:00N 42°24' E 010°36'2625.6 1018.0 21.1
2016-Sep-22 09:00N 42°00' E 010°48'2020.1 1017.9 22.0
2016-Sep-22 08:00N 41°42' E 011°00'2020.1 1016.5 21.1
2016-Sep-22 07:00N 41°24' E 011°12'2827.6 1015.3 21.4
2016-Sep-22 06:00N 41°00' E 011°30'2625.7 1013.8 20.9
2016-Sep-22 05:00N 40°36' E 011°42'2827.6 1012.5 21.8
2016-Sep-22 04:00N 40°12' E 012°00'2827.7 1013.0 22.0
2016-Sep-22 03:00N 39°48' E 012°18'2625.7 1013.4 22.6
2016-Sep-22 02:00N 39°24' E 012°30'2827.8 1013.8 23.9
2016-Sep-22 01:00N 39°00' E 012°48'2827.8 1014.8 23.8
2016-Sep-22 00:00N 38°36' E 013°06'2322.9 1015.4 23.6
2016-Sep-21 23:00N 38°18' E 013°24'6 0.9 1015.2 23.2
2016-Sep-21 16:00N 38°12' E 013°24'2322.9 1013.5 23.6
2016-Sep-21 15:00N 38°30' E 013°06'2625.8 1014.3 23.5
2016-Sep-21 14:00N 38°54' E 012°54'2322.8 1013.9 23.5
2016-Sep-21 13:00N 39°12' E 012°36'2322.8 1013.9 23.1
2016-Sep-21 12:00N 39°30' E 012°18'2020.2 1014.0 23.9
2016-Sep-21 11:00N 39°48' E 012°06'2322.7 1014.1 24.5
2016-Sep-21 10:00N 40°06' E 011°48'2827.6 1013.7 23.5
2016-Sep-21 09:00N 40°30' E 011°30'2020.2 1012.9 23.0
2016-Sep-21 08:00N 40°48' E 011°18'2322.6 1012.1 22.6
2016-Sep-21 07:00N 41°06' E 011°00'2322.5 1011.4 22.1
2016-Sep-21 06:00N 41°24' E 010°42'2020.1 1010.7 22.0
2016-Sep-21 05:00N 41°42' E 010°30'2727.5 1009.4 21.8
2016-Sep-21 04:00N 42°06' E 010°12'2222.4 1009.7 22.2
2016-Sep-21 03:00N 42°24' E 009°54'2424.0 1009.9 21.8
2016-Sep-21 02:00N 42°48' E 009°54'1918.5 1010.6 22.0
2016-Sep-21 01:00N 43°06' E 010°00'2727.3 1010.5 22.1
2016-Sep-21 00:00N 43°30' E 009°42'2222.2 1011.3 22.1
2016-Sep-20 23:00N 43°48' E 009°24'2222.2 1012.0 21.7
2016-Sep-20 22:00N 44°06' E 009°06'20 1.7 1012.4 21.9
2016-Sep-20 10:00N 44°24' E 008°54'0 0.0 1012.3 22.5
2016-Sep-19 23:00N 44°24' E 008°54'0 0.0 1011.6 20.7
2016-Sep-19 19:00N 44°24' E 008°54'0 0.0 1010.7 22.5
2016-Sep-19 18:00N 44°24' E 008°54'0 0.0 1010.1 22.8
2016-Sep-19 12:00N 44°24' E 008°54'0 0.0 1009.8 26.9
2016-Sep-18 22:00N 44°24' E 008°54'7 7.4 1010.4 17.9
2016-Sep-18 21:00N 44°18' E 009°00'2727.3 1009.6 20.0
2016-Sep-18 20:00N 43°54' E 009°18'2727.3 1009.0 20.3
2016-Sep-18 19:00N 43°30' E 009°36'2525.1 1008.5 20.1
2016-Sep-18 18:00N 43°12' E 010°00'3030.0 1007.7 20.2
2016-Sep-18 17:00N 42°42' E 010°00'2928.5 1007.3 19.7
2016-Sep-18 16:00N 42°24' E 010°30'2525.2 1005.9 20.3
2016-Sep-18 15:00N 42°12' E 011°00'3029.9 1006.1 20.8
2016-Sep-18 14:00N 41°48' E 011°24'2221.6 1008.3 21.3
2016-Sep-18 13:00N 41°36' E 011°48'2928.8 1010.6 22.1
2016-Sep-18 12:00N 41°18' E 012°18'2625.5 1011.7 21.8
2016-Sep-18 11:00N 41°00' E 012°42'2929.0 1012.7 19.3
2016-Sep-18 10:00N 40°42' E 013°12'2828.0 1012.3 20.4
2016-Sep-18 09:00N 40°36' E 013°48'2625.7 1013.2 21.9
2016-Sep-18 08:00N 40°48' E 014°18'0 0.0 1013.5 22.6
2016-Sep-18 07:00N 40°48' E 014°18'0 0.0 1014.1 22.1
2016-Sep-18 06:00N 40°48' E 014°18'2827.6 1013.0 21.3
2016-Sep-18 05:00N 40°24' E 014°00'3030.3 1012.8 21.9
2016-Sep-18 04:00N 39°54' E 013°54'2625.7 1014.2 23.1
2016-Sep-18 03:00N 39°30' E 013°42'2424.4 1014.6 23.2
2016-Sep-18 02:00N 39°06' E 013°36'3131.4 1015.0 23.0
2016-Sep-18 01:00N 38°36' E 013°24'2424.0 1015.4 23.0
2016-Sep-18 00:00N 38°12' E 013°24'6 6.0 1015.9 22.9
2016-Sep-17 23:00N 38°06' E 013°24'0 0.0 1016.7 22.3
2016-Sep-17 17:00N 38°06' E 013°24'2020.3 1015.8 23.9
2016-Sep-17 16:00N 38°24' E 013°12'2625.8 1015.6 24.5
2016-Sep-17 15:00N 38°48' E 013°00'2322.8 1015.9 24.8
2016-Sep-17 14:00N 39°06' E 012°42'2222.1 1016.0 25.6
2016-Sep-17 13:00N 39°18' E 012°18'2322.7 1016.4 25.9
2016-Sep-17 12:00N 39°36' E 012°00'2020.2 1016.2 25.6
2016-Sep-17 11:00N 39°54' E 011°48'2322.7 1016.7 25.1
2016-Sep-17 10:00N 40°12' E 011°30'3030.2 1016.1 23.8
2016-Sep-17 09:00N 40°36' E 011°06'2322.6 1015.9 23.2
2016-Sep-17 08:00N 40°54' E 010°48'   1014.8 22.4
Track history (hours):
 
Tides and Currents Weather Stations Pressure Air Temp Water Temp Dewpoint Dewpoint Depression Visibility Wind Speed Wind Dir Waves Ship Positions

Callsign BAREU51 (name unknown)

Last reported at 2016-Sep-27 08:00 UTC. Time now 2016-Sep-27 08:47 UTC.
Position N 41°24' E 011°12'.

Barometer 1020.9 mb
Air temperature 22.9 ° C

Date/timePositionNaut miles runAvg speedWind from/ knotsBaromVisibWave heightAir tempDewpointWater temp
2016-Sep-27 08:00N 41°24' E 011°12'2020.1 1020.9 22.9
2016-Sep-27 07:00N 41°06' E 011°24'2020.2 1020.6 22.1
2016-Sep-27 06:00N 40°48' E 011°36'2322.6 1020.1 21.8
2016-Sep-27 05:00N 40°30' E 011°54'2625.7 1019.5 21.7
2016-Sep-27 04:00N 40°06' E 012°06'2020.2 1019.2 22.0
2016-Sep-27 03:00N 39°48' E 012°18'2020.2 1018.9 21.8
2016-Sep-27 02:00N 39°30' E 012°30'2827.7 1018.5 22.0
2016-Sep-27 01:00N 39°06' E 012°48'2020.3 1018.9 22.0
2016-Sep-27 00:00N 38°48' E 013°00'2020.3 1019.0 22.1
2016-Sep-26 23:00N 38°30' E 013°12'2625.8 1019.2 22.3
2016-Sep-26 22:00N 38°06' E 013°24'0 0.0 1019.8 20.8
2016-Sep-26 08:00N 38°06' E 013°24'0 0.0 1018.4 25.2
2016-Sep-26 04:00N 38°06' E 013°24'0 0.0 1016.8 21.7
2016-Sep-25 19:00N 38°06' E 013°24'0 0.0 1017.0 21.3
2016-Sep-25 18:00N 38°06' E 013°24'0 0.0 1016.8 21.5
2016-Sep-25 16:00N 38°06' E 013°24'6 6.0 1016.1 21.6
2016-Sep-25 15:00N 38°12' E 013°24'2827.8 1014.8 21.3
2016-Sep-25 14:00N 38°36' E 013°06'2020.3 1015.4 22.9
2016-Sep-25 13:00N 38°54' E 012°54'2322.8 1015.8 23.9
2016-Sep-25 12:00N 39°12' E 012°36'2322.8 1016.7 24.5
2016-Sep-25 11:00N 39°30' E 012°18'2020.2 1017.9 24.7
2016-Sep-25 10:00N 39°48' E 012°06'2322.7 1018.4 24.1
2016-Sep-25 09:00N 40°06' E 011°48'2020.2 1018.8 23.7
2016-Sep-25 08:00N 40°24' E 011°36'2827.6 1019.3 23.3
2016-Sep-25 07:00N 40°48' E 011°18'2322.6 1019.6 22.5
2016-Sep-25 06:00N 41°06' E 011°00'2020.1 1019.7 22.1
2016-Sep-25 05:00N 41°24' E 010°48'2222.5 1020.3 21.2
2016-Sep-25 04:00N 41°42' E 010°30'3029.9 1020.2 21.6
2016-Sep-25 03:00N 42°06' E 010°06'2625.6 1020.2 21.6
2016-Sep-25 02:00N 42°30' E 009°54'3030.3 1020.5 21.7
2016-Sep-25 01:00N 43°00' E 010°00'2625.5 1020.7 22.1
2016-Sep-25 00:00N 43°24' E 009°48'3029.6 1020.6 22.1
2016-Sep-24 23:00N 43°48' E 009°24'2727.3 1021.3 22.4
2016-Sep-24 22:00N 44°12' E 009°06'15 4.9 1022.1 22.5
2016-Sep-24 19:00N 44°24' E 008°54'0 0.0 1023.2 22.6
2016-Sep-24 17:00N 44°24' E 008°54'7 7.4 1023.0 23.3
2016-Sep-24 16:00N 44°18' E 009°00'2222.2 1022.3 23.3
2016-Sep-24 15:00N 44°00' E 009°18'2020.0 1022.8 22.6
2016-Sep-24 14:00N 43°42' E 009°30'2727.3 1023.0 22.1
2016-Sep-24 13:00N 43°18' E 009°48'2020.0 1023.2 22.9
2016-Sep-24 12:00N 43°00' E 010°00'1918.5 1023.8 23.0
2016-Sep-24 11:00N 42°42' E 010°06'2525.2 1024.2 22.5
2016-Sep-24 10:00N 42°24' E 010°30'2020.1 1023.8 21.8
2016-Sep-24 09:00N 42°06' E 010°42'2222.4 1024.0 22.0
2016-Sep-24 08:00N 41°48' E 011°00'2625.6 1023.9 22.8
2016-Sep-24 07:00N 41°24' E 011°12'2020.1 1023.6 22.3
2016-Sep-24 06:00N 41°06' E 011°24'2322.6 1023.3 22.2
2016-Sep-24 05:00N 40°48' E 011°42'2625.7 1022.3 21.9
2016-Sep-24 04:00N 40°24' E 011°54'2827.7 1022.1 22.0
2016-Sep-24 03:00N 40°00' E 012°12'2827.7 1021.9 22.1
2016-Sep-24 02:00N 39°36' E 012°30'2625.7 1021.8 22.3
2016-Sep-24 01:00N 39°12' E 012°42'2827.8 1022.3 22.5
2016-Sep-24 00:00N 38°48' E 013°00'2827.8 1022.2 22.4
2016-Sep-23 23:00N 38°24' E 013°18'13 1.8 1022.4 23.0
2016-Sep-23 16:00N 38°12' E 013°24'2827.8 1022.3 23.5
2016-Sep-23 15:00N 38°36' E 013°06'2827.8 1022.0 23.6
2016-Sep-23 14:00N 39°00' E 012°48'2322.8 1021.9 23.4
2016-Sep-23 13:00N 39°18' E 012°30'2827.7 1022.1 24.0
2016-Sep-23 12:00N 39°42' E 012°12'2322.7 1022.8 23.7
2016-Sep-23 11:00N 40°00' E 011°54'2020.2 1023.3 24.2
2016-Sep-23 10:00N 40°18' E 011°42'2322.6 1023.5 24.2
2016-Sep-23 09:00N 40°36' E 011°24'2322.6 1023.5 23.5
2016-Sep-23 08:00N 40°54' E 011°06'2625.6 1023.2 23.3
2016-Sep-23 07:00N 41°18' E 010°54'2222.5 1022.8 22.5
2016-Sep-23 06:00N 41°36' E 010°36'2222.5 1022.5 21.9
2016-Sep-23 05:00N 41°54' E 010°18'2222.4 1021.7 21.2
2016-Sep-23 04:00N 42°12' E 010°00'2424.4 1021.4 21.5
2016-Sep-23 03:00N 42°36' E 009°54'2424.4 1021.2 21.6
2016-Sep-23 02:00N 43°00' E 010°00'2020.0 1021.2 21.8
2016-Sep-23 01:00N 43°18' E 009°48'2727.3 1021.2 21.9
2016-Sep-23 00:00N 43°42' E 009°30'2020.0 1022.0 21.8
2016-Sep-22 23:00N 44°00' E 009°18'2222.2 1022.3 21.4
2016-Sep-22 22:00N 44°18' E 009°00'7 1.5 1022.3 20.7
2016-Sep-22 17:00N 44°24' E 008°54'1514.8 1020.7 22.8
2016-Sep-22 16:00N 44°12' E 009°06'2222.2 1020.0 22.7
2016-Sep-22 15:00N 43°54' E 009°24'2020.0 1020.1 22.8
2016-Sep-22 14:00N 43°36' E 009°36'4522.7 1020.0 22.5
2016-Sep-22 12:00N 42°54' E 010°00'2020.0 1019.5 22.2
2016-Sep-22 11:00N 42°36' E 010°12'2121.4 1019.6 22.5
2016-Sep-22 10:00N 42°24' E 010°36'2625.6 1018.0 21.1
2016-Sep-22 09:00N 42°00' E 010°48'2020.1 1017.9 22.0
2016-Sep-22 08:00N 41°42' E 011°00'2020.1 1016.5 21.1
2016-Sep-22 07:00N 41°24' E 011°12'2827.6 1015.3 21.4
2016-Sep-22 06:00N 41°00' E 011°30'2625.7 1013.8 20.9
2016-Sep-22 05:00N 40°36' E 011°42'2827.6 1012.5 21.8
2016-Sep-22 04:00N 40°12' E 012°00'2827.7 1013.0 22.0
2016-Sep-22 03:00N 39°48' E 012°18'2625.7 1013.4 22.6
2016-Sep-22 02:00N 39°24' E 012°30'2827.8 1013.8 23.9
2016-Sep-22 01:00N 39°00' E 012°48'2827.8 1014.8 23.8
2016-Sep-22 00:00N 38°36' E 013°06'2322.9 1015.4 23.6
2016-Sep-21 23:00N 38°18' E 013°24'6 0.9 1015.2 23.2
2016-Sep-21 16:00N 38°12' E 013°24'2322.9 1013.5 23.6
2016-Sep-21 15:00N 38°30' E 013°06'2625.8 1014.3 23.5
2016-Sep-21 14:00N 38°54' E 012°54'2322.8 1013.9 23.5
2016-Sep-21 13:00N 39°12' E 012°36'2322.8 1013.9 23.1
2016-Sep-21 12:00N 39°30' E 012°18'2020.2 1014.0 23.9
2016-Sep-21 11:00N 39°48' E 012°06'2322.7 1014.1 24.5
2016-Sep-21 10:00N 40°06' E 011°48'2827.6 1013.7 23.5
2016-Sep-21 09:00N 40°30' E 011°30'2020.2 1012.9 23.0
2016-Sep-21 08:00N 40°48' E 011°18'2322.6 1012.1 22.6
2016-Sep-21 07:00N 41°06' E 011°00'2322.5 1011.4 22.1
2016-Sep-21 06:00N 41°24' E 010°42'2020.1 1010.7 22.0
2016-Sep-21 05:00N 41°42' E 010°30'2727.5 1009.4 21.8
2016-Sep-21 04:00N 42°06' E 010°12'2222.4 1009.7 22.2
2016-Sep-21 03:00N 42°24' E 009°54'2424.0 1009.9 21.8
2016-Sep-21 02:00N 42°48' E 009°54'1918.5 1010.6 22.0
2016-Sep-21 01:00N 43°06' E 010°00'2727.3 1010.5 22.1
2016-Sep-21 00:00N 43°30' E 009°42'2222.2 1011.3 22.1
2016-Sep-20 23:00N 43°48' E 009°24'2222.2 1012.0 21.7
2016-Sep-20 22:00N 44°06' E 009°06'20 1.7 1012.4 21.9
2016-Sep-20 10:00N 44°24' E 008°54'0 0.0 1012.3 22.5
2016-Sep-19 23:00N 44°24' E 008°54'0 0.0 1011.6 20.7
2016-Sep-19 19:00N 44°24' E 008°54'0 0.0 1010.7 22.5
2016-Sep-19 18:00N 44°24' E 008°54'0 0.0 1010.1 22.8
2016-Sep-19 12:00N 44°24' E 008°54'0 0.0 1009.8 26.9
2016-Sep-18 22:00N 44°24' E 008°54'7 7.4 1010.4 17.9
2016-Sep-18 21:00N 44°18' E 009°00'2727.3 1009.6 20.0
2016-Sep-18 20:00N 43°54' E 009°18'2727.3 1009.0 20.3
2016-Sep-18 19:00N 43°30' E 009°36'2525.1 1008.5 20.1
2016-Sep-18 18:00N 43°12' E 010°00'3030.0 1007.7 20.2
2016-Sep-18 17:00N 42°42' E 010°00'2928.5 1007.3 19.7
2016-Sep-18 16:00N 42°24' E 010°30'2525.2 1005.9 20.3
2016-Sep-18 15:00N 42°12' E 011°00'3029.9 1006.1 20.8
2016-Sep-18 14:00N 41°48' E 011°24'2221.6 1008.3 21.3
2016-Sep-18 13:00N 41°36' E 011°48'2928.8 1010.6 22.1
2016-Sep-18 12:00N 41°18' E 012°18'2625.5 1011.7 21.8
2016-Sep-18 11:00N 41°00' E 012°42'2929.0 1012.7 19.3
2016-Sep-18 10:00N 40°42' E 013°12'2828.0 1012.3 20.4
2016-Sep-18 09:00N 40°36' E 013°48'2625.7 1013.2 21.9
2016-Sep-18 08:00N 40°48' E 014°18'0 0.0 1013.5 22.6
2016-Sep-18 07:00N 40°48' E 014°18'0 0.0 1014.1 22.1
2016-Sep-18 06:00N 40°48' E 014°18'2827.6 1013.0 21.3
2016-Sep-18 05:00N 40°24' E 014°00'3030.3 1012.8 21.9
2016-Sep-18 04:00N 39°54' E 013°54'2625.7 1014.2 23.1
2016-Sep-18 03:00N 39°30' E 013°42'2424.4 1014.6 23.2
2016-Sep-18 02:00N 39°06' E 013°36'3131.4 1015.0 23.0
2016-Sep-18 01:00N 38°36' E 013°24'2424.0 1015.4 23.0
2016-Sep-18 00:00N 38°12' E 013°24'6 6.0 1015.9 22.9
2016-Sep-17 23:00N 38°06' E 013°24'0 0.0 1016.7 22.3
2016-Sep-17 17:00N 38°06' E 013°24'2020.3 1015.8 23.9
2016-Sep-17 16:00N 38°24' E 013°12'2625.8 1015.6 24.5
2016-Sep-17 15:00N 38°48' E 013°00'2322.8 1015.9 24.8
2016-Sep-17 14:00N 39°06' E 012°42'2222.1 1016.0 25.6
2016-Sep-17 13:00N 39°18' E 012°18'2322.7 1016.4 25.9
2016-Sep-17 12:00N 39°36' E 012°00'2020.2 1016.2 25.6
2016-Sep-17 11:00N 39°54' E 011°48'2322.7 1016.7 25.1
2016-Sep-17 10:00N 40°12' E 011°30'3030.2 1016.1 23.8
2016-Sep-17 09:00N 40°36' E 011°06'2322.6 1015.9 23.2
2016-Sep-17 08:00N 40°54' E 010°48'   1014.8 22.4

Dump ship's entire track history